createdAt,value
2022-12-25T00:01:22.463Z,20.77
2022-12-25T00:03:50.035Z,20.73
2022-12-25T00:06:16.738Z,20.72
2022-12-25T00:08:43.661Z,20.69
2022-12-25T00:11:15.616Z,20.68
2022-12-25T00:13:43.582Z,20.66
2022-12-25T00:16:14.806Z,20.62
2022-12-25T00:18:41.359Z,20.61
2022-12-25T00:21:07.914Z,20.62
2022-12-25T00:23:35.581Z,20.58
2022-12-25T00:26:11.866Z,20.55
2022-12-25T00:28:38.805Z,20.54
2022-12-25T00:31:07.902Z,20.52
2022-12-25T00:33:36.368Z,20.49
2022-12-25T00:36:03.957Z,20.47
2022-12-25T00:38:30.510Z,20.45
2022-12-25T00:40:57.069Z,20.41
2022-12-25T00:43:23.617Z,20.40
2022-12-25T00:45:58.880Z,20.39
2022-12-25T00:48:26.552Z,20.36
2022-12-25T00:50:54.759Z,20.31
2022-12-25T00:53:21.591Z,20.30
2022-12-25T00:55:55.923Z,20.29
2022-12-25T00:58:23.071Z,20.26
2022-12-25T01:00:51.327Z,20.27
2022-12-25T01:03:18.416Z,20.24
2022-12-25T01:05:55.516Z,20.22
2022-12-25T01:08:22.132Z,20.21
2022-12-25T01:11:18.176Z,20.19
2022-12-25T01:13:44.609Z,20.17
2022-12-25T01:16:12.276Z,20.16
2022-12-25T01:18:39.280Z,20.15
2022-12-25T01:21:07.466Z,20.12
2022-12-25T01:23:34.079Z,20.11
2022-12-25T01:26:09.315Z,20.09
2022-12-25T01:28:36.289Z,20.08
2022-12-25T01:31:03.604Z,20.08
2022-12-25T01:33:30.414Z,20.05
2022-12-25T01:35:58.538Z,20.02
2022-12-25T01:38:25.201Z,20.02
2022-12-25T01:40:51.804Z,19.99
2022-12-25T01:43:25.215Z,19.98
2022-12-25T01:45:55.344Z,19.94
2022-12-25T01:48:39.849Z,19.95
2022-12-25T01:51:17.190Z,19.94
2022-12-25T01:53:43.709Z,19.92
2022-12-25T01:56:10.222Z,19.90
2022-12-25T01:58:36.858Z,19.89
2022-12-25T02:01:03.358Z,19.88
2022-12-25T02:03:30.020Z,19.87
2022-12-25T02:05:56.948Z,19.86
2022-12-25T02:08:23.805Z,19.83
2022-12-25T02:10:50.570Z,19.81
2022-12-25T02:13:19.604Z,19.81
2022-12-25T02:16:15.617Z,19.80
2022-12-25T02:18:56.657Z,19.78
2022-12-25T02:21:23.091Z,19.77
2022-12-25T02:24:14.360Z,19.76
2022-12-25T02:27:15.081Z,19.74
2022-12-25T02:29:50.577Z,19.73
2022-12-25T02:32:26.315Z,19.69
2022-12-25T02:34:58.593Z,19.69
2022-12-25T02:37:52.592Z,19.69
2022-12-25T02:40:28.004Z,19.67
2022-12-25T02:43:50.637Z,19.63
2022-12-25T02:46:40.311Z,19.62
2022-12-25T02:49:32.643Z,19.61
2022-12-25T02:52:27.153Z,19.58
2022-12-25T02:55:18.567Z,19.57
2022-12-25T02:58:07.297Z,19.55
2022-12-25T03:00:57.680Z,19.53
2022-12-25T03:03:45.585Z,19.53
2022-12-25T03:06:31.957Z,19.52
2022-12-25T03:09:21.725Z,19.51
2022-12-25T03:11:54.692Z,19.50
2022-12-25T03:14:39.555Z,19.49
2022-12-25T03:17:06.146Z,19.50
2022-12-25T03:19:53.223Z,19.48
2022-12-25T03:22:43.831Z,19.45
2022-12-25T03:25:29.625Z,19.45
2022-12-25T03:27:57.728Z,19.42
2022-12-25T03:30:50.333Z,19.41
2022-12-25T03:33:44.008Z,19.41
2022-12-25T03:36:22.321Z,19.40
2022-12-25T03:39:23.273Z,19.39
2022-12-25T03:42:13.746Z,19.38
2022-12-25T03:45:14.732Z,19.33
2022-12-25T03:48:06.545Z,19.33
2022-12-25T03:51:15.606Z,19.33
2022-12-25T03:54:05.940Z,19.32
2022-12-25T03:56:52.238Z,19.31
2022-12-25T03:59:39.247Z,19.28
2022-12-25T04:02:24.218Z,19.28
2022-12-25T04:05:09.462Z,19.26
2022-12-25T04:07:54.799Z,19.25
2022-12-25T04:10:40.204Z,19.23
2022-12-25T04:13:25.004Z,19.22
2022-12-25T04:16:13.581Z,19.21
2022-12-25T04:18:58.789Z,19.20
2022-12-25T04:21:44.074Z,19.21
2022-12-25T04:24:29.867Z,19.20
2022-12-25T04:27:15.092Z,19.17
2022-12-25T04:30:00.464Z,19.16
2022-12-25T04:32:45.228Z,19.13
2022-12-25T04:35:30.337Z,19.15
2022-12-25T04:37:57.230Z,19.13
2022-12-25T04:40:23.782Z,19.13
2022-12-25T04:42:51.370Z,19.11
2022-12-25T04:45:17.956Z,19.11
2022-12-25T04:47:44.441Z,19.11
2022-12-25T04:50:11.132Z,19.09
2022-12-25T04:52:39.559Z,19.09
2022-12-25T04:55:08.209Z,19.08
2022-12-25T04:57:34.959Z,19.07
2022-12-25T05:00:01.455Z,19.08
2022-12-25T05:02:28.044Z,19.07
2022-12-25T05:04:54.645Z,19.05
2022-12-25T05:07:21.105Z,19.06
2022-12-25T05:09:47.519Z,19.04
2022-12-25T05:12:14.793Z,19.02
2022-12-25T05:14:41.324Z,19.02
2022-12-25T05:17:08.154Z,19.02
2022-12-25T05:19:34.808Z,18.99
2022-12-25T05:22:01.375Z,18.99
2022-12-25T05:24:28.409Z,18.99
2022-12-25T05:26:54.882Z,18.98
2022-12-25T05:29:21.315Z,18.97
2022-12-25T05:31:47.846Z,18.96
2022-12-25T05:34:14.349Z,18.95
2022-12-25T05:36:40.820Z,18.92
2022-12-25T05:39:07.298Z,18.91
2022-12-25T05:41:34.739Z,18.92
2022-12-25T05:44:01.999Z,18.90
2022-12-25T05:46:28.491Z,18.90
2022-12-25T05:48:54.985Z,18.91
2022-12-25T05:51:21.594Z,18.94
2022-12-25T05:53:48.184Z,19.01
2022-12-25T05:56:14.944Z,19.07
2022-12-25T05:58:41.750Z,19.15
2022-12-25T06:01:19.815Z,19.25
2022-12-25T06:03:46.912Z,19.40
2022-12-25T06:06:14.264Z,19.51
2022-12-25T06:08:41.038Z,19.62
2022-12-25T06:11:13.984Z,19.76
2022-12-25T06:13:40.643Z,19.86
2022-12-25T06:16:10.262Z,19.97
2022-12-25T06:18:38.670Z,20.07
2022-12-25T06:21:10.081Z,20.17
2022-12-25T06:23:37.811Z,20.28
2022-12-25T06:26:07.104Z,20.38
2022-12-25T06:28:33.679Z,20.46
2022-12-25T06:31:05.965Z,20.56
2022-12-25T06:33:32.465Z,20.64
2022-12-25T06:35:58.931Z,20.73
2022-12-25T06:38:25.409Z,20.80
2022-12-25T06:40:51.834Z,20.86
2022-12-25T06:43:18.241Z,20.94
2022-12-25T06:45:44.740Z,21.00
2022-12-25T06:48:11.229Z,21.06
2022-12-25T06:50:43.032Z,21.12
2022-12-25T06:53:09.568Z,21.16
2022-12-25T06:55:36.030Z,21.20
2022-12-25T06:58:02.450Z,21.24
2022-12-25T07:00:28.906Z,21.27
2022-12-25T07:02:55.608Z,21.32
2022-12-25T07:05:22.150Z,21.33
2022-12-25T07:07:48.600Z,21.36
2022-12-25T07:10:15.125Z,21.39
2022-12-25T07:12:41.583Z,21.42
2022-12-25T07:15:08.805Z,21.44
2022-12-25T07:17:35.895Z,21.46
2022-12-25T07:20:02.469Z,21.48
2022-12-25T07:22:29.883Z,21.49
2022-12-25T07:24:56.407Z,21.50
2022-12-25T07:27:22.852Z,21.52
2022-12-25T07:29:49.652Z,21.54
2022-12-25T07:32:16.153Z,21.55
2022-12-25T07:34:42.596Z,21.55
2022-12-25T07:37:09.097Z,21.57
2022-12-25T07:39:35.578Z,21.60
2022-12-25T07:42:02.103Z,21.60
2022-12-25T07:44:28.545Z,21.62
2022-12-25T07:46:54.991Z,21.63
2022-12-25T07:49:21.545Z,21.64
2022-12-25T07:51:48.003Z,21.65
2022-12-25T07:54:14.471Z,21.65
2022-12-25T07:56:40.912Z,21.67
2022-12-25T07:59:07.375Z,21.67
2022-12-25T08:01:34.103Z,21.69
2022-12-25T08:04:01.989Z,21.70
2022-12-25T08:06:33.871Z,21.70
2022-12-25T08:09:06.330Z,21.72
2022-12-25T08:11:32.920Z,21.72
2022-12-25T08:13:59.397Z,21.73
2022-12-25T08:16:25.973Z,21.74
2022-12-25T08:18:53.313Z,21.75
2022-12-25T08:21:19.811Z,21.77
2022-12-25T08:23:47.027Z,21.76
2022-12-25T08:26:20.901Z,21.76
2022-12-25T08:28:48.294Z,21.77
2022-12-25T08:31:21.525Z,21.77
2022-12-25T08:33:49.736Z,21.79
2022-12-25T08:36:17.313Z,21.79
2022-12-25T08:38:43.895Z,21.80
2022-12-25T08:41:11.701Z,21.81
2022-12-25T08:43:38.476Z,21.81
2022-12-25T08:46:05.681Z,21.82
2022-12-25T08:48:32.643Z,21.81
2022-12-25T08:50:59.213Z,21.80
2022-12-25T08:53:25.826Z,21.81
2022-12-25T08:56:00.098Z,21.82
2022-12-25T08:58:28.149Z,21.83
2022-12-25T09:00:55.231Z,21.83
2022-12-25T09:03:22.465Z,21.82
2022-12-25T09:05:49.099Z,21.82
2022-12-25T09:08:15.649Z,21.80
2022-12-25T09:10:42.410Z,21.81
2022-12-25T09:13:09.820Z,21.83
2022-12-25T09:15:38.247Z,21.82
2022-12-25T09:18:05.046Z,21.83
2022-12-25T09:20:31.524Z,21.85
2022-12-25T09:22:58.086Z,21.83
2022-12-25T09:25:24.591Z,21.84
2022-12-25T09:27:51.067Z,21.83
2022-12-25T09:30:17.534Z,21.83
2022-12-25T09:32:44.004Z,21.85
2022-12-25T09:35:10.577Z,21.86
2022-12-25T09:37:37.026Z,21.86
2022-12-25T09:40:03.901Z,21.87
2022-12-25T09:42:32.421Z,21.87
2022-12-25T09:45:11.849Z,21.87
2022-12-25T09:47:41.921Z,21.88
2022-12-25T09:50:20.444Z,21.89
2022-12-25T09:52:55.111Z,21.88
2022-12-25T09:55:24.769Z,21.90
2022-12-25T09:57:56.922Z,21.88
2022-12-25T10:00:27.342Z,21.90
2022-12-25T10:03:12.136Z,21.90
2022-12-25T10:06:11.358Z,21.91
2022-12-25T10:08:51.534Z,21.91
2022-12-25T10:11:26.969Z,21.92
2022-12-25T10:14:24.662Z,21.91
2022-12-25T10:16:51.055Z,21.92
2022-12-25T10:19:53.016Z,21.91
2022-12-25T10:22:32.011Z,21.91
2022-12-25T10:25:00.228Z,21.90
2022-12-25T10:27:34.110Z,21.90
2022-12-25T10:30:02.178Z,21.92
2022-12-25T10:32:28.693Z,21.92
2022-12-25T10:34:55.477Z,21.92
2022-12-25T10:37:22.019Z,21.92
2022-12-25T10:39:48.446Z,21.91
2022-12-25T10:42:30.186Z,21.92
2022-12-25T10:45:08.152Z,21.93
2022-12-25T10:47:38.189Z,21.92
2022-12-25T10:50:12.998Z,21.92
2022-12-25T10:53:09.867Z,21.92
2022-12-25T10:55:36.406Z,21.93
2022-12-25T10:58:02.965Z,21.92
2022-12-25T11:00:31.962Z,21.93
2022-12-25T11:02:59.151Z,21.93
2022-12-25T11:05:31.724Z,21.93
2022-12-25T11:08:00.946Z,21.94
2022-12-25T11:10:38.899Z,21.93
2022-12-25T11:13:07.715Z,21.94
2022-12-25T11:15:45.519Z,21.95
2022-12-25T11:18:21.236Z,21.95
2022-12-25T11:20:55.905Z,21.96
2022-12-25T11:23:25.195Z,21.96
2022-12-25T11:25:57.140Z,21.95
2022-12-25T11:28:25.349Z,21.97
2022-12-25T11:30:57.562Z,21.97
2022-12-25T11:33:30.508Z,21.97
2022-12-25T11:35:58.120Z,21.97
2022-12-25T11:38:25.161Z,21.99
2022-12-25T11:40:56.015Z,21.97
2022-12-25T11:43:44.122Z,21.97
2022-12-25T11:46:18.202Z,21.96
2022-12-25T11:48:50.016Z,21.96
2022-12-25T11:51:17.782Z,21.96
2022-12-25T11:53:51.671Z,21.96
2022-12-25T11:56:28.047Z,21.95
2022-12-25T11:59:00.751Z,21.96
2022-12-25T12:01:48.906Z,21.97
2022-12-25T12:07:17.267Z,21.97
2022-12-25T12:12:34.536Z,21.97
2022-12-25T12:15:09.143Z,21.97
2022-12-25T12:20:27.388Z,21.96
2022-12-25T12:25:21.651Z,21.98
2022-12-25T12:27:57.232Z,21.97
2022-12-25T12:30:32.355Z,21.99
2022-12-25T12:33:02.004Z,21.97
2022-12-25T12:35:33.147Z,21.97
2022-12-25T12:38:04.214Z,21.98
2022-12-25T12:40:41.903Z,21.98
2022-12-25T12:43:28.341Z,21.99
2022-12-25T12:46:30.050Z,21.99
2022-12-25T12:49:20.747Z,22.00
2022-12-25T12:51:47.873Z,21.99
2022-12-25T12:54:14.468Z,22.01
2022-12-25T12:56:40.900Z,22.02
2022-12-25T12:59:09.557Z,22.00
2022-12-25T13:01:51.672Z,22.02
2022-12-25T13:05:01.678Z,22.01
2022-12-25T13:07:44.314Z,22.01
2022-12-25T13:10:20.420Z,22.01
2022-12-25T13:12:53.428Z,22.01
2022-12-25T13:15:21.276Z,22.02
2022-12-25T13:17:48.630Z,21.98
2022-12-25T13:20:35.210Z,22.02
2022-12-25T13:23:01.673Z,22.03
2022-12-25T13:25:28.208Z,22.03
2022-12-25T13:27:57.443Z,22.04
2022-12-25T13:30:24.780Z,22.04
2022-12-25T13:32:51.490Z,22.04
2022-12-25T13:35:21.129Z,22.04
2022-12-25T13:37:48.160Z,22.04
2022-12-25T13:40:27.094Z,22.04
2022-12-25T13:43:00.287Z,22.05
2022-12-25T13:45:29.834Z,22.04
2022-12-25T13:47:56.818Z,22.04
2022-12-25T13:50:27.558Z,22.06
2022-12-25T13:52:57.716Z,22.04
2022-12-25T13:55:27.247Z,22.03
2022-12-25T13:57:57.753Z,22.03
2022-12-25T14:00:46.469Z,22.02
2022-12-25T14:03:39.375Z,22.02
2022-12-25T14:06:27.327Z,22.02
2022-12-25T14:08:58.900Z,22.02
2022-12-25T14:11:29.191Z,22.00
2022-12-25T14:14:07.156Z,22.02
2022-12-25T14:16:34.583Z,22.03
2022-12-25T14:19:02.579Z,22.02
2022-12-25T14:21:38.964Z,22.03
2022-12-25T14:24:13.953Z,22.04
2022-12-25T14:26:40.780Z,22.01
2022-12-25T14:29:16.781Z,22.02
2022-12-25T14:31:45.088Z,22.03
2022-12-25T14:34:17.765Z,22.03
2022-12-25T14:36:44.869Z,22.03
2022-12-25T14:39:29.776Z,22.04
2022-12-25T14:41:56.806Z,22.05
2022-12-25T14:44:40.811Z,22.04
2022-12-25T14:47:18.676Z,22.04
2022-12-25T14:49:45.810Z,22.05
2022-12-25T14:52:18.116Z,22.05
2022-12-25T14:55:16.739Z,22.04
2022-12-25T14:57:48.591Z,22.05
2022-12-25T15:00:35.451Z,22.05
2022-12-25T15:03:08.255Z,22.05
2022-12-25T15:05:38.087Z,22.05
2022-12-25T15:08:10.140Z,22.05
2022-12-25T15:13:25.699Z,22.05
2022-12-25T15:15:58.767Z,22.04
2022-12-25T15:18:30.513Z,22.03
2022-12-25T15:20:57.248Z,22.03
2022-12-25T15:23:25.336Z,22.04
2022-12-25T15:25:52.145Z,22.04
2022-12-25T15:28:18.632Z,22.05
2022-12-25T15:30:45.224Z,22.05
2022-12-25T15:33:16.486Z,22.03
2022-12-25T15:35:44.331Z,22.04
2022-12-25T15:38:12.789Z,22.04
2022-12-25T15:40:39.994Z,22.04
2022-12-25T15:43:14.562Z,22.05
2022-12-25T15:45:53.903Z,22.05
2022-12-25T15:48:20.395Z,22.04
2022-12-25T15:50:46.838Z,22.04
2022-12-25T15:53:14.087Z,22.06
2022-12-25T15:55:40.821Z,22.05
2022-12-25T15:58:12.658Z,22.05
2022-12-25T16:00:39.176Z,22.07
2022-12-25T16:03:05.791Z,22.05
2022-12-25T16:05:32.366Z,22.06
2022-12-25T16:07:58.822Z,22.06
2022-12-25T16:10:25.301Z,22.07
2022-12-25T16:12:51.812Z,22.07
2022-12-25T16:15:18.343Z,22.07
2022-12-25T16:17:45.066Z,22.06
2022-12-25T16:20:11.969Z,22.05
2022-12-25T16:22:41.353Z,22.03
2022-12-25T16:25:13.666Z,21.99
2022-12-25T16:27:40.344Z,21.98
2022-12-25T16:30:07.533Z,21.94
2022-12-25T16:32:34.071Z,21.93
2022-12-25T16:35:00.562Z,21.90
2022-12-25T16:37:27.620Z,21.92
2022-12-25T16:39:54.110Z,21.91
2022-12-25T16:42:20.732Z,21.89
2022-12-25T16:44:47.155Z,21.90
2022-12-25T16:47:13.692Z,21.91
2022-12-25T16:49:40.145Z,21.92
2022-12-25T16:52:06.663Z,21.91
2022-12-25T16:54:33.126Z,21.94
2022-12-25T16:56:59.603Z,21.94
2022-12-25T16:59:28.582Z,21.95
2022-12-25T17:01:55.492Z,21.94
2022-12-25T17:04:22.105Z,21.96
2022-12-25T17:06:48.981Z,21.97
2022-12-25T17:09:15.481Z,21.98
2022-12-25T17:11:41.990Z,21.99
2022-12-25T17:14:10.311Z,21.99
2022-12-25T17:16:38.004Z,21.99
2022-12-25T17:19:12.126Z,22.00
2022-12-25T17:21:38.769Z,22.01
2022-12-25T17:24:05.776Z,22.01
2022-12-25T17:26:33.126Z,22.02
2022-12-25T17:29:00.130Z,22.02
2022-12-25T17:31:26.838Z,22.02
2022-12-25T17:33:53.359Z,22.02
2022-12-25T17:36:21.634Z,22.03
2022-12-25T17:38:48.692Z,22.03
2022-12-25T17:41:16.788Z,22.04
2022-12-25T17:43:45.611Z,22.03
2022-12-25T17:46:18.146Z,22.04
2022-12-25T17:48:45.313Z,22.04
2022-12-25T17:51:16.057Z,22.05
2022-12-25T17:53:44.953Z,22.06
2022-12-25T17:56:12.430Z,22.06
2022-12-25T17:58:39.478Z,22.06
2022-12-25T18:01:08.062Z,22.07
2022-12-25T18:03:35.956Z,22.06
2022-12-25T18:06:06.247Z,22.07
2022-12-25T18:08:38.917Z,22.06
2022-12-25T18:11:11.404Z,22.06
2022-12-25T18:13:38.149Z,22.07
2022-12-25T18:16:07.068Z,22.06
2022-12-25T18:18:34.660Z,22.06
2022-12-25T18:21:02.130Z,22.06
2022-12-25T18:23:29.333Z,22.05
2022-12-25T18:25:56.301Z,22.05
2022-12-25T18:28:22.861Z,22.05
2022-12-25T18:30:49.395Z,22.04
2022-12-25T18:33:15.943Z,22.03
2022-12-25T18:35:44.037Z,22.03
2022-12-25T18:38:11.545Z,22.03
2022-12-25T18:40:42.598Z,22.03
2022-12-25T18:43:09.641Z,22.04
2022-12-25T18:45:36.884Z,22.04
2022-12-25T18:48:06.102Z,22.04
2022-12-25T18:50:33.867Z,22.03
2022-12-25T18:53:00.461Z,22.05
2022-12-25T18:55:27.018Z,22.03
2022-12-25T18:57:53.687Z,22.05
2022-12-25T19:00:20.367Z,22.04
2022-12-25T19:02:48.329Z,22.05
2022-12-25T19:05:15.993Z,22.05
2022-12-25T19:07:42.977Z,22.06
2022-12-25T19:10:10.475Z,22.06
2022-12-25T19:12:37.021Z,22.06
2022-12-25T19:15:03.793Z,22.05
2022-12-25T19:17:32.072Z,22.06
2022-12-25T19:19:58.988Z,22.06
2022-12-25T19:22:25.730Z,22.07
2022-12-25T19:24:52.168Z,22.07
2022-12-25T19:27:18.673Z,22.07
2022-12-25T19:29:45.213Z,22.07
2022-12-25T19:32:11.743Z,22.08
2022-12-25T19:34:38.261Z,22.08
2022-12-25T19:37:05.171Z,22.08
2022-12-25T19:39:31.776Z,22.08
2022-12-25T19:41:58.220Z,22.08
2022-12-25T19:44:24.902Z,22.08
2022-12-25T19:46:51.405Z,22.07
2022-12-25T19:49:17.898Z,22.07
2022-12-25T19:51:45.845Z,22.06
2022-12-25T19:54:20.636Z,22.05
2022-12-25T19:56:48.163Z,22.06
2022-12-25T19:59:15.105Z,22.05
2022-12-25T20:01:42.635Z,22.05
2022-12-25T20:04:09.924Z,22.06
2022-12-25T20:06:38.780Z,22.05
2022-12-25T20:09:08.844Z,22.05
2022-12-25T20:11:36.906Z,22.06
2022-12-25T20:14:04.590Z,22.06
2022-12-25T20:16:31.173Z,22.05
2022-12-25T20:18:58.093Z,22.06
2022-12-25T20:21:27.178Z,22.07
2022-12-25T20:23:54.026Z,22.07
2022-12-25T20:26:23.516Z,22.04
2022-12-25T20:28:50.468Z,22.05
2022-12-25T20:31:20.664Z,22.08
2022-12-25T20:33:47.389Z,22.07
2022-12-25T20:36:14.739Z,22.06
2022-12-25T20:38:41.654Z,22.09
2022-12-25T20:41:28.475Z,22.08
2022-12-25T20:43:56.400Z,22.08
2022-12-25T20:46:23.507Z,22.07
2022-12-25T20:48:50.075Z,22.09
2022-12-25T20:51:19.260Z,22.09
2022-12-25T20:53:46.414Z,22.08
2022-12-25T20:56:16.072Z,22.09
2022-12-25T20:58:43.057Z,22.08
2022-12-25T21:01:15.327Z,22.07
2022-12-25T21:03:42.472Z,22.08
2022-12-25T21:06:11.460Z,22.09
2022-12-25T21:08:38.828Z,22.08
2022-12-25T21:11:05.677Z,22.07
2022-12-25T21:13:35.324Z,22.07
2022-12-25T21:16:05.750Z,22.07
2022-12-25T21:18:32.271Z,22.08
2022-12-25T21:20:59.248Z,22.07
2022-12-25T21:23:26.715Z,22.06
2022-12-25T21:25:54.672Z,22.07
2022-12-25T21:28:22.043Z,22.05
2022-12-25T21:30:49.009Z,22.07
2022-12-25T21:33:34.406Z,22.07
2022-12-25T21:36:11.146Z,22.06
2022-12-25T21:38:38.485Z,22.06
2022-12-25T21:41:07.042Z,22.06
2022-12-25T21:43:34.795Z,22.06
2022-12-25T21:46:06.645Z,22.05
2022-12-25T21:48:34.457Z,22.04
2022-12-25T21:51:43.706Z,22.05
2022-12-25T21:54:11.483Z,22.06
2022-12-25T21:56:44.607Z,22.04
2022-12-25T21:59:15.754Z,22.05
2022-12-25T22:01:43.079Z,22.05
2022-12-25T22:04:10.532Z,22.06
2022-12-25T22:06:55.667Z,22.07
2022-12-25T22:09:22.691Z,22.07
2022-12-25T22:12:08.013Z,22.07
2022-12-25T22:14:53.707Z,22.07
2022-12-25T22:17:45.374Z,22.07
2022-12-25T22:20:18.889Z,22.05
2022-12-25T22:22:45.980Z,22.06
2022-12-25T22:25:13.251Z,22.07
2022-12-25T22:27:41.203Z,22.05
2022-12-25T22:30:11.482Z,22.04
2022-12-25T22:32:38.189Z,22.02
2022-12-25T22:35:05.243Z,22.00
2022-12-25T22:37:31.700Z,21.98
2022-12-25T22:39:58.184Z,21.96
2022-12-25T22:42:24.675Z,21.91
2022-12-25T22:44:51.215Z,21.89
2022-12-25T22:47:17.669Z,21.81
2022-12-25T22:49:44.196Z,21.81
2022-12-25T22:52:10.675Z,21.77
2022-12-25T22:54:37.615Z,21.73
2022-12-25T22:57:04.612Z,21.70
2022-12-25T22:59:32.677Z,21.65
2022-12-25T23:01:59.869Z,21.60
2022-12-25T23:04:26.898Z,21.55
2022-12-25T23:06:53.402Z,21.51
2022-12-25T23:09:24.847Z,21.47
2022-12-25T23:11:51.551Z,21.43
2022-12-25T23:14:36.550Z,21.37
2022-12-25T23:17:03.117Z,21.33
2022-12-25T23:19:48.237Z,21.28
2022-12-25T23:22:33.058Z,21.24
2022-12-25T23:25:18.537Z,21.20
2022-12-25T23:27:45.643Z,21.16
2022-12-25T23:30:15.566Z,21.10
2022-12-25T23:32:43.227Z,21.08
2022-12-25T23:35:11.271Z,21.02
2022-12-25T23:37:37.771Z,21.01
2022-12-25T23:40:05.026Z,20.96
2022-12-25T23:42:31.551Z,20.92
2022-12-25T23:44:58.003Z,20.87
2022-12-25T23:47:24.508Z,20.84
2022-12-25T23:49:50.999Z,20.83
2022-12-25T23:52:17.515Z,20.78
2022-12-25T23:54:43.962Z,20.79
2022-12-25T23:57:10.489Z,20.75
2022-12-25T23:59:36.957Z,20.73
